Time;durP1;ratioP1;P1;durP2;ratioP2;P2;SDS_P1;SDS_P2;PMS_P1;PMS_P2;Temp;Humidity;BMP_temperature;BMP_pressure;BME280_temperature;BME280_humidity;BME280_pressure;Samples;Min_cycle;Max_cycle;Signal;HPM_P1;HPM_P2
2023/03/10 00:01:28;;;;;;;3.88;1.40;;;31.60;99.90;;;;;;5052020;28;20176;-72
2023/03/10 00:03:57;;;;;;;5.97;1.85;;;31.90;99.90;;;;;;5051353;28;20196;-72
2023/03/10 00:06:27;;;;;;;3.80;1.08;;;32.00;99.90;;;;;;5050942;28;20211;-71
2023/03/10 00:08:55;;;;;;;8.13;1.50;;;31.00;99.90;;;;;;5053162;28;20234;-72
2023/03/10 00:11:23;;;;;;;7.57;1.50;;;30.10;99.90;;;;;;5052810;28;20185;-72
2023/03/10 00:13:50;;;;;;;6.78;1.48;;;30.70;99.90;;;;;;5052272;28;20617;-72
2023/03/10 00:16:21;;;;;;;4.80;1.13;;;31.40;99.90;;;;;;5051860;28;20242;-72
2023/03/10 00:18:49;;;;;;;8.95;1.45;;;32.00;99.90;;;;;;5051172;28;20559;-71
2023/03/10 00:21:22;;;;;;;5.47;1.80;;;31.50;99.90;;;;;;5049652;28;20596;-72
2023/03/10 00:23:50;;;;;;;7.97;1.70;;;31.30;99.90;;;;;;5052709;28;20184;-72
2023/03/10 00:26:19;;;;;;;8.57;1.70;;;31.30;99.90;;;;;;5050670;28;20746;-73
2023/03/10 00:28:47;;;;;;;3.90;1.30;;;30.50;99.90;;;;;;5049285;28;20220;-72
2023/03/10 00:31:17;;;;;;;3.60;1.70;;;30.50;99.90;;;;;;5050965;28;20192;-72
2023/03/10 00:33:45;;;;;;;3.88;1.30;;;29.60;99.90;;;;;;5051412;28;20655;-72
2023/03/10 00:36:18;;;;;;;11.18;2.40;;;29.00;99.90;;;;;;5051193;28;20188;-71
2023/03/10 00:38:46;;;;;;;6.13;2.10;;;28.20;99.90;;;;;;5050442;28;20230;-72
2023/03/10 00:41:22;;;;;;;8.17;2.20;;;28.50;99.90;;;;;;5051395;28;20715;-73
2023/03/10 00:43:50;;;;;;;7.20;2.37;;;28.20;99.90;;;;;;5049401;28;20196;-72
2023/03/10 00:46:19;;;;;;;13.20;2.07;;;27.90;99.90;;;;;;5052413;28;20209;-72
2023/03/10 00:48:46;;;;;;;13.13;2.80;;;28.70;99.90;;;;;;5052101;28;20215;-73
2023/03/10 00:51:14;;;;;;;9.10;2.80;;;29.50;99.90;;;;;;5052044;28;20188;-72
2023/03/10 00:53:41;;;;;;;7.00;3.00;;;28.90;99.90;;;;;;5050402;28;20586;-72
2023/03/10 00:56:18;;;;;;;8.70;3.27;;;28.70;99.90;;;;;;5050669;28;20193;-72
2023/03/10 00:58:47;;;;;;;6.83;2.67;;;28.90;99.90;;;;;;5051632;28;20690;-73
2023/03/10 01:01:17;;;;;;;7.37;3.40;;;29.50;99.90;;;;;;5052215;28;20172;-74
2023/03/10 01:03:45;;;;;;;7.67;3.03;;;29.90;99.90;;;;;;5050736;28;20192;-73
2023/03/10 01:06:13;;;;;;;7.30;3.20;;;30.60;99.90;;;;;;5050394;28;20204;-72
2023/03/10 01:08:40;;;;;;;7.38;2.78;;;31.30;99.90;;;;;;5052035;28;20307;-72
2023/03/10 01:11:08;;;;;;;9.67;3.17;;;31.70;99.90;;;;;;5052028;28;20539;-72
2023/03/10 01:13:35;;;;;;;5.50;2.67;;;30.90;99.90;;;;;;5049557;28;20193;-72
2023/03/10 01:16:02;;;;;;;8.47;3.30;;;29.80;99.90;;;;;;5036468;28;20185;-71
2023/03/10 01:18:30;;;;;;;8.33;2.80;;;29.20;99.90;;;;;;5051135;28;20185;-73
2023/03/10 01:20:57;;;;;;;6.43;3.07;;;29.70;99.90;;;;;;5050960;28;20315;-73
2023/03/10 01:23:26;;;;;;;8.68;2.35;;;30.80;99.90;;;;;;5050799;28;20346;-73
2023/03/10 01:25:54;;;;;;;8.05;2.70;;;31.40;99.90;;;;;;5050541;28;20271;-71
2023/03/10 01:28:21;;;;;;;12.00;3.10;;;31.60;99.90;;;;;;5051428;28;20227;-72
2023/03/10 01:30:49;;;;;;;7.57;2.75;;;31.40;99.90;;;;;;5050538;28;20203;-73
2023/03/10 01:33:18;;;;;;;9.45;3.15;;;32.10;99.90;;;;;;5048546;28;20219;-73
2023/03/10 01:35:45;;;;;;;5.97;3.00;;;32.90;99.90;;;;;;5050344;28;20219;-73
2023/03/10 01:38:59;;;;;;;8.20;2.55;;;33.50;99.90;;;;;;5049732;28;20283;-74
2023/03/10 01:41:26;;;;;;;5.40;2.53;;;32.70;99.90;;;;;;5050967;28;20192;-73
2023/03/10 01:43:55;;;;;;;8.85;3.13;;;33.30;99.90;;;;;;5051069;28;20191;-73
2023/03/10 01:46:40;;;;;;;5.57;2.55;;;32.90;99.90;;;;;;5050587;28;20211;-72
2023/03/10 01:49:13;;;;;;;8.40;2.70;;;31.90;99.90;;;;;;5050054;28;20224;-73
2023/03/10 01:51:46;;;;;;;9.45;3.60;;;31.50;99.90;;;;;;5050386;28;20181;-74
2023/03/10 01:54:21;;;;;;;7.93;3.45;;;32.20;99.90;;;;;;5051360;28;20650;-73
2023/03/10 01:56:50;;;;;;;4.17;3.00;;;31.60;99.90;;;;;;5051023;28;20172;-74
2023/03/10 01:59:19;;;;;;;4.43;2.70;;;30.50;99.90;;;;;;5050113;28;20187;-74
2023/03/10 02:01:47;;;;;;;10.18;3.53;;;30.80;99.90;;;;;;5051039;28;20173;-73
2023/03/10 02:04:26;;;;;;;8.65;3.20;;;31.40;99.90;;;;;;5049836;28;20271;-73
2023/03/10 02:06:54;;;;;;;8.83;2.97;;;30.80;99.90;;;;;;5049243;28;20314;-74
2023/03/10 02:09:22;;;;;;;5.03;3.23;;;30.10;99.90;;;;;;5049245;28;20246;-76
2023/03/10 02:11:50;;;;;;;5.20;2.70;;;30.10;99.90;;;;;;5050508;28;20183;-74
2023/03/10 02:14:18;;;;;;;6.15;2.95;;;31.20;99.90;;;;;;5050400;28;20661;-74
2023/03/10 02:16:46;;;;;;;6.38;2.67;;;32.30;99.90;;;;;;5050985;28;20222;-73
2023/03/10 02:19:44;;;;;;;4.50;2.80;;;32.20;99.90;;;;;;5048768;28;20236;-75
2023/03/10 02:22:14;;;;;;;6.28;2.55;;;32.30;99.90;;;;;;5043526;28;20196;-75
2023/03/10 02:24:56;;;;;;;6.07;3.30;;;31.70;99.90;;;;;;5048818;28;20188;-73
2023/03/10 02:27:26;;;;;;;11.85;2.90;;;31.30;99.90;;;;;;5050593;28;20307;-73
2023/03/10 02:30:06;;;;;;;5.40;2.58;;;31.30;99.90;;;;;;5051944;28;20572;-74
2023/03/10 02:32:39;;;;;;;6.07;2.63;;;32.10;99.90;;;;;;5053060;28;20181;-75
2023/03/10 02:35:11;;;;;;;7.13;2.17;;;31.90;99.90;;;;;;5054387;28;20239;-73
2023/03/10 02:37:39;;;;;;;10.20;2.50;;;30.90;99.90;;;;;;5054606;28;20214;-73
2023/03/10 02:40:51;;;;;;;6.82;2.65;;;30.40;99.90;;;;;;5052320;28;20207;-74
2023/03/10 02:43:30;;;;;;;5.63;2.75;;;30.00;99.90;;;;;;5010797;28;20599;-72
2023/03/10 02:46:04;;;;;;;8.13;2.85;;;30.00;99.90;;;;;;5049749;28;20207;-76
2023/03/10 02:48:37;;;;;;;3.80;2.50;;;29.80;99.90;;;;;;5052269;28;20226;-73
2023/03/10 02:51:10;;;;;;;4.57;2.47;;;29.50;99.90;;;;;;5052800;28;20244;-74
2023/03/10 02:53:37;;;;;;;8.73;3.30;;;29.20;99.90;;;;;;5054182;28;20181;-73
2023/03/10 02:56:05;;;;;;;8.60;2.70;;;28.90;99.90;;;;;;5053201;28;20226;-74
2023/03/10 02:58:33;;;;;;;6.73;2.60;;;28.60;99.90;;;;;;5054329;28;20240;-73
2023/03/10 03:01:00;;;;;;;7.53;2.73;;;28.80;99.90;;;;;;5053534;28;20657;-73
2023/03/10 03:03:27;;;;;;;8.70;2.93;;;30.00;99.90;;;;;;5053359;28;20262;-73
2023/03/10 03:05:55;;;;;;;6.17;2.30;;;30.60;99.90;;;;;;5054301;28;20627;-72
2023/03/10 03:08:23;;;;;;;7.43;2.23;;;30.60;99.90;;;;;;5053276;28;20224;-74
2023/03/10 03:10:50;;;;;;;6.97;2.43;;;30.20;99.90;;;;;;5053047;28;20183;-74
2023/03/10 03:13:18;;;;;;;7.67;2.43;;;29.70;99.90;;;;;;5053108;28;20526;-73
2023/03/10 03:15:45;;;;;;;4.20;2.27;;;29.20;99.90;;;;;;5053512;28;20200;-72
2023/03/10 03:18:13;;;;;;;6.90;2.17;;;29.40;99.90;;;;;;5052625;28;20611;-71
2023/03/10 03:20:40;;;;;;;5.70;1.90;;;29.70;99.90;;;;;;5052726;28;20224;-73
2023/03/10 03:23:08;;;;;;;7.37;2.27;;;30.20;99.90;;;;;;5053033;28;20609;-74
2023/03/10 03:25:39;;;;;;;6.80;2.00;;;30.70;99.90;;;;;;5053551;28;20184;-73
2023/03/10 03:28:08;;;;;;;11.40;2.67;;;30.80;99.90;;;;;;5051309;28;20666;-72
2023/03/10 03:30:36;;;;;;;9.52;2.47;;;31.30;99.90;;;;;;5053808;28;20588;-74
2023/03/10 03:33:06;;;;;;;9.70;2.53;;;32.20;99.90;;;;;;5052009;28;20227;-72
2023/03/10 03:35:35;;;;;;;7.00;1.90;;;32.10;99.90;;;;;;5053569;28;20177;-74
2023/03/10 03:38:04;;;;;;;5.00;2.10;;;31.80;99.90;;;;;;5049595;28;20188;-76
2023/03/10 03:40:33;;;;;;;7.82;2.28;;;31.20;99.90;;;;;;5049892;28;20296;-75
2023/03/10 03:43:01;;;;;;;5.63;2.00;;;30.40;99.90;;;;;;5053102;28;20169;-73
2023/03/10 03:45:31;;;;;;;6.17;1.67;;;29.80;99.90;;;;;;5051778;28;20192;-73
2023/03/10 03:47:59;;;;;;;5.23;1.80;;;29.40;99.90;;;;;;5051851;28;20247;-73
2023/03/10 03:50:26;;;;;;;5.57;1.83;;;29.10;99.90;;;;;;5053023;28;20188;-76
2023/03/10 03:52:54;;;;;;;6.47;2.20;;;28.90;99.90;;;;;;5036381;28;20187;-74
2023/03/10 03:55:22;;;;;;;6.03;2.33;;;28.70;99.90;;;;;;5051692;28;20586;-72
2023/03/10 03:57:49;;;;;;;9.27;2.10;;;29.40;99.90;;;;;;5050651;28;20180;-73
2023/03/10 04:00:21;;;;;;;6.73;2.13;;;30.00;99.90;;;;;;5036635;28;20196;-73
2023/03/10 04:02:48;;;;;;;7.33;1.70;;;30.30;99.90;;;;;;5052256;28;20259;-71
2023/03/10 04:05:16;;;;;;;8.60;1.83;;;30.40;99.90;;;;;;5052031;28;20200;-73
2023/03/10 04:07:44;;;;;;;9.17;1.90;;;29.80;99.90;;;;;;5052845;28;20515;-73
2023/03/10 04:10:14;;;;;;;6.73;2.20;;;29.30;99.90;;;;;;5050457;28;20201;-71
2023/03/10 04:12:42;;;;;;;6.60;2.07;;;29.30;99.90;;;;;;5051995;28;20181;-71
2023/03/10 04:15:10;;;;;;;6.00;2.00;;;29.20;99.90;;;;;;5051646;28;20211;-71
2023/03/10 04:17:37;;;;;;;2.47;1.43;;;29.10;99.90;;;;;;5050291;28;20272;-72
2023/03/10 04:20:08;;;;;;;5.80;1.73;;;28.90;99.90;;;;;;5052382;28;20227;-72
2023/03/10 04:22:36;;;;;;;6.03;1.70;;;28.60;99.90;;;;;;5050090;28;20204;-73
2023/03/10 04:25:05;;;;;;;3.27;1.47;;;28.60;99.90;;;;;;5032617;28;20268;-72
2023/03/10 04:27:33;;;;;;;4.77;1.60;;;28.40;99.90;;;;;;5036942;28;20690;-73
2023/03/10 04:30:01;;;;;;;3.17;1.10;;;28.30;99.90;;;;;;5032968;28;20670;-72
2023/03/10 04:32:28;;;;;;;4.83;1.50;;;28.10;99.90;;;;;;5032361;28;20213;-73
2023/03/10 04:34:58;;;;;;;7.30;1.93;;;28.00;99.90;;;;;;5052617;28;20188;-74
2023/03/10 04:37:26;;;;;;;8.97;1.53;;;27.80;99.90;;;;;;5041345;28;20275;-73
2023/03/10 04:39:53;;;;;;;4.83;1.30;;;27.80;99.90;;;;;;5050651;28;20195;-73
2023/03/10 04:42:21;;;;;;;4.50;1.50;;;27.70;99.90;;;;;;5032789;28;20268;-72
2023/03/10 04:44:49;;;;;;;7.20;1.50;;;27.70;99.90;;;;;;5052245;28;20180;-71
2023/03/10 04:47:16;;;;;;;6.80;1.43;;;27.80;99.90;;;;;;5041718;28;20247;-73
2023/03/10 04:49:44;;;;;;;3.27;1.30;;;27.80;99.90;;;;;;5051827;28;20228;-70
2023/03/10 04:52:13;;;;;;;6.23;1.33;;;27.70;99.90;;;;;;5051884;28;20617;-70
2023/03/10 04:54:40;;;;;;;9.30;1.80;;;27.60;99.90;;;;;;5048210;28;20189;-72
2023/03/10 04:57:08;;;;;;;6.37;1.57;;;27.50;99.90;;;;;;5034861;28;20189;-71
2023/03/10 04:59:36;;;;;;;4.80;1.33;;;27.50;99.90;;;;;;5050706;28;20196;-71
2023/03/10 05:02:04;;;;;;;4.67;1.83;;;27.60;99.90;;;;;;5048987;28;20591;-71
2023/03/10 05:04:31;;;;;;;6.97;1.67;;;27.60;99.90;;;;;;5051830;28;20168;-70
2023/03/10 05:06:58;;;;;;;6.73;1.17;;;27.50;99.90;;;;;;5049613;28;20191;-71
2023/03/10 05:09:26;;;;;;;11.10;2.23;;;27.30;99.90;;;;;;5051230;28;20792;-72
2023/03/10 05:11:53;;;;;;;5.63;1.40;;;27.20;99.90;;;;;;5050034;28;20208;-72
2023/03/10 05:14:21;;;;;;;5.23;1.43;;;27.30;99.90;;;;;;5050235;28;20219;-71
2023/03/10 05:16:48;;;;;;;5.77;1.60;;;27.40;99.90;;;;;;5049778;28;20227;-70
2023/03/10 05:19:16;;;;;;;10.30;1.73;;;27.60;99.90;;;;;;5051382;28;20223;-72
2023/03/10 05:21:43;;;;;;;11.53;1.90;;;27.80;99.90;;;;;;5049595;28;20193;-73
2023/03/10 05:24:11;;;;;;;3.43;1.50;;;27.60;99.90;;;;;;5049309;28;20227;-72
2023/03/10 05:26:38;;;;;;;5.90;1.40;;;27.50;99.90;;;;;;5051022;28;20184;-71
2023/03/10 05:29:06;;;;;;;6.30;1.60;;;27.30;99.90;;;;;;5051855;28;20215;-71
2023/03/10 05:31:33;;;;;;;2.87;1.20;;;27.50;99.90;;;;;;5049188;28;20184;-72
2023/03/10 05:34:01;;;;;;;3.83;1.23;;;27.60;99.90;;;;;;5053089;28;20176;-71
2023/03/10 05:36:28;;;;;;;8.77;1.73;;;27.60;99.90;;;;;;5051433;28;20210;-71
2023/03/10 05:38:55;;;;;;;9.57;1.80;;;27.30;99.90;;;;;;5052241;28;20195;-72
2023/03/10 05:41:23;;;;;;;6.20;1.80;;;27.30;99.90;;;;;;5050246;28;20187;-71
2023/03/10 05:43:50;;;;;;;4.63;1.57;;;27.10;99.90;;;;;;5050566;28;20184;-72
2023/03/10 05:46:18;;;;;;;8.63;2.70;;;27.10;99.90;;;;;;5050980;28;20177;-71
2023/03/10 05:48:45;;;;;;;11.30;1.80;;;27.20;99.90;;;;;;5050730;28;20331;-72
2023/03/10 05:51:13;;;;;;;6.93;2.23;;;27.30;99.90;;;;;;5051313;28;20313;-73
2023/03/10 05:53:41;;;;;;;5.27;1.50;;;27.40;99.90;;;;;;5050166;28;20626;-72
2023/03/10 05:56:12;;;;;;;7.70;1.47;;;27.40;99.90;;;;;;5050997;28;20264;-70
2023/03/10 05:58:40;;;;;;;10.00;1.80;;;27.30;99.90;;;;;;5051563;28;20194;-72
2023/03/10 06:01:08;;;;;;;6.30;1.53;;;27.50;99.90;;;;;;5049501;28;20264;-72
2023/03/10 06:03:36;;;;;;;5.03;1.43;;;27.50;99.90;;;;;;5053757;28;20184;-72
2023/03/10 06:06:05;;;;;;;8.00;1.80;;;27.50;99.90;;;;;;5054263;28;20185;-72
2023/03/10 06:08:33;;;;;;;9.43;1.80;;;27.50;99.90;;;;;;5054498;28;20224;-72
2023/03/10 06:11:00;;;;;;;5.87;1.53;;;27.30;99.90;;;;;;5054456;28;20263;-72
2023/03/10 06:13:28;;;;;;;7.57;1.73;;;27.30;99.90;;;;;;5054044;28;20230;-72
2023/03/10 06:16:04;;;;;;;4.20;1.77;;;27.30;99.90;;;;;;5048776;28;20185;-73
2023/03/10 06:18:32;;;;;;;12.10;2.23;;;27.30;99.90;;;;;;5054911;28;20551;-72
2023/03/10 06:21:03;;;;;;;8.53;1.23;;;27.20;99.90;;;;;;5052868;28;20284;-72
2023/03/10 06:23:30;;;;;;;3.43;1.20;;;27.30;99.90;;;;;;5052797;28;20180;-71
2023/03/10 06:25:58;;;;;;;11.47;1.97;;;27.40;99.90;;;;;;5054280;28;20599;-72
2023/03/10 06:28:31;;;;;;;6.40;1.87;;;27.40;99.90;;;;;;5053873;28;20646;-72
2023/03/10 06:31:03;;;;;;;7.60;1.80;;;27.50;99.90;;;;;;5053420;28;20562;-72
2023/03/10 06:33:32;;;;;;;5.57;1.30;;;27.40;99.90;;;;;;5054725;28;20180;-72
2023/03/10 06:35:59;;;;;;;7.53;1.60;;;27.30;99.90;;;;;;5053504;28;20191;-73
2023/03/10 06:38:27;;;;;;;7.13;1.73;;;27.30;99.90;;;;;;5052885;28;20188;-72
2023/03/10 06:40:55;;;;;;;3.80;1.30;;;27.30;99.90;;;;;;5053343;28;20189;-73
2023/03/10 06:43:22;;;;;;;7.00;1.50;;;27.20;99.90;;;;;;5054700;28;20172;-72
2023/03/10 06:45:50;;;;;;;5.03;1.30;;;27.10;99.90;;;;;;5054090;28;20230;-73
2023/03/10 06:48:17;;;;;;;8.17;1.80;;;27.00;99.90;;;;;;5052746;28;20228;-73
2023/03/10 06:50:49;;;;;;;6.23;1.77;;;26.90;99.90;;;;;;5052554;28;20188;-72
2023/03/10 06:53:21;;;;;;;12.07;1.63;;;26.80;99.90;;;;;;5054082;28;20569;-72
2023/03/10 06:56:05;;;;;;;12.10;1.60;;;27.00;99.90;;;;;;5052700;28;20200;-72
2023/03/10 06:58:36;;;;;;;11.40;1.90;;;27.00;99.90;;;;;;5053524;28;20189;-72
2023/03/10 07:01:06;;;;;;;5.70;1.33;;;26.90;99.90;;;;;;5052514;28;20203;-71
2023/03/10 07:03:34;;;;;;;7.83;2.17;;;26.80;99.90;;;;;;5054148;28;20184;-71
2023/03/10 07:06:02;;;;;;;5.97;1.60;;;26.70;99.90;;;;;;5053317;28;20287;-71
2023/03/10 07:08:30;;;;;;;6.97;2.23;;;26.60;99.90;;;;;;5053502;28;20555;-70
2023/03/10 07:10:57;;;;;;;9.70;1.57;;;26.70;99.90;;;;;;5046104;28;20188;-71
2023/03/10 07:13:25;;;;;;;7.90;1.67;;;26.60;99.90;;;;;;5053475;28;20183;-70
2023/03/10 07:15:52;;;;;;;14.17;1.73;;;26.50;99.90;;;;;;5038437;28;20189;-72
2023/03/10 07:18:20;;;;;;;6.90;1.20;;;26.40;99.90;;;;;;5048546;28;20280;-71
2023/03/10 07:20:47;;;;;;;6.50;1.50;;;26.30;99.90;;;;;;5040239;28;20220;-71
2023/03/10 07:23:15;;;;;;;4.70;1.70;;;26.10;99.90;;;;;;5036295;28;20295;-71
2023/03/10 07:25:42;;;;;;;7.67;1.70;;;26.00;99.90;;;;;;5053495;28;20255;-72
2023/03/10 07:28:10;;;;;;;5.07;1.40;;;25.70;99.90;;;;;;5052790;28;20204;-71
2023/03/10 07:30:38;;;;;;;13.93;2.00;;;25.60;99.90;;;;;;5050086;28;20283;-71
2023/03/10 07:33:06;;;;;;;5.07;1.40;;;25.60;99.90;;;;;;5049699;28;20646;-72
2023/03/10 07:35:33;;;;;;;5.00;1.50;;;25.50;99.90;;;;;;5053683;28;20180;-70
2023/03/10 07:38:00;;;;;;;9.90;1.93;;;25.40;99.90;;;;;;5052863;28;20183;-70
2023/03/10 07:40:28;;;;;;;7.33;1.77;;;25.40;99.90;;;;;;5053741;28;20173;-70
2023/03/10 07:42:55;;;;;;;6.63;1.23;;;25.30;99.90;;;;;;5051557;28;20194;-70
2023/03/10 07:45:24;;;;;;;7.53;1.60;;;25.20;99.90;;;;;;5053212;28;20643;-69
2023/03/10 07:47:52;;;;;;;9.40;1.50;;;25.10;99.90;;;;;;5053535;28;20180;-69
2023/03/10 07:50:20;;;;;;;8.03;1.43;;;25.00;99.90;;;;;;5053191;28;20264;-70
2023/03/10 07:52:48;;;;;;;12.87;2.23;;;24.80;99.90;;;;;;5051591;28;20176;-71
2023/03/10 07:55:16;;;;;;;8.20;2.37;;;24.80;99.90;;;;;;5053193;28;20219;-69
2023/03/10 07:57:43;;;;;;;6.87;1.73;;;24.80;99.90;;;;;;5053372;28;20184;-69
2023/03/10 08:00:12;;;;;;;5.83;1.43;;;24.70;99.90;;;;;;5043584;28;20222;-69
2023/03/10 08:02:40;;;;;;;9.80;1.73;;;24.60;99.90;;;;;;5049226;28;20219;-69
2023/03/10 08:05:09;;;;;;;4.87;1.43;;;24.40;99.90;;;;;;5046103;28;20247;-69
2023/03/10 08:07:37;;;;;;;10.73;1.47;;;24.40;99.90;;;;;;5051953;28;20193;-69
2023/03/10 08:10:05;;;;;;;7.47;1.50;;;24.40;99.90;;;;;;5032819;28;20220;-69
2023/03/10 08:12:33;;;;;;;4.97;1.37;;;24.30;99.90;;;;;;5033143;28;20643;-71
2023/03/10 08:15:01;;;;;;;12.57;1.57;;;24.20;99.90;;;;;;5032098;28;20277;-70
2023/03/10 08:17:32;;;;;;;9.20;2.23;;;24.20;99.90;;;;;;5031406;28;20292;-69
2023/03/10 08:20:00;;;;;;;15.70;1.77;;;24.20;99.90;;;;;;5032598;28;20279;-70
2023/03/10 08:22:28;;;;;;;7.70;2.00;;;24.20;99.90;;;;;;5035931;28;20673;-69
2023/03/10 08:24:55;;;;;;;9.07;1.87;;;24.10;99.90;;;;;;5031464;28;20666;-70
2023/03/10 08:27:23;;;;;;;12.17;2.17;;;24.10;99.90;;;;;;5032544;28;20543;-68
2023/03/10 08:29:51;;;;;;;9.20;2.00;;;24.00;99.90;;;;;;5030957;28;20205;-70
2023/03/10 08:32:18;;;;;;;8.07;1.90;;;24.00;99.90;;;;;;5038518;28;20192;-68
2023/03/10 08:34:46;;;;;;;6.23;1.63;;;23.90;99.90;;;;;;5038346;28;20573;-70
2023/03/10 08:37:14;;;;;;;9.50;1.83;;;23.90;99.90;;;;;;5046018;28;20948;-69
2023/03/10 08:39:41;;;;;;;5.70;1.50;;;23.90;99.90;;;;;;5052423;28;20208;-69
2023/03/10 08:42:11;;;;;;;12.03;1.90;;;23.90;99.90;;;;;;5051288;28;20199;-70
2023/03/10 08:44:39;;;;;;;6.83;2.00;;;23.80;99.90;;;;;;5051604;28;20585;-68
2023/03/10 08:47:07;;;;;;;10.37;2.07;;;23.80;99.90;;;;;;5051534;28;20200;-68
2023/03/10 08:49:34;;;;;;;6.90;2.20;;;23.70;99.90;;;;;;5051799;28;20273;-68
2023/03/10 08:52:02;;;;;;;7.50;2.30;;;23.70;99.90;;;;;;5047158;28;20192;-70
2023/03/10 08:54:29;;;;;;;13.20;2.37;;;23.70;99.90;;;;;;5046345;28;20196;-69
2023/03/10 08:56:57;;;;;;;8.80;1.80;;;23.60;99.90;;;;;;5051676;28;20216;-69
2023/03/10 08:59:24;;;;;;;13.53;1.63;;;23.60;99.90;;;;;;5052757;28;20173;-69
2023/03/10 09:01:51;;;;;;;9.83;2.00;;;23.50;99.90;;;;;;5053342;28;20177;-70
2023/03/10 09:04:19;;;;;;;9.23;1.83;;;23.60;99.90;;;;;;5053193;28;20225;-69
2023/03/10 09:06:47;;;;;;;8.63;1.97;;;23.60;99.90;;;;;;5053231;28;20184;-69
2023/03/10 09:09:14;;;;;;;8.80;1.83;;;23.50;99.90;;;;;;5052832;28;20665;-69
2023/03/10 09:11:42;;;;;;;10.37;2.03;;;23.50;99.90;;;;;;5052917;28;20176;-69
2023/03/10 09:17:32;;;;;;;9.80;2.20;;;23.50;99.90;;;;;;5052233;28;20270;-70
2023/03/10 09:19:59;;;;;;;14.27;2.20;;;23.50;99.90;;;;;;5052405;28;20221;-69
2023/03/10 09:22:26;;;;;;;12.10;2.13;;;23.40;99.90;;;;;;5051827;28;20192;-69
2023/03/10 09:24:54;;;;;;;13.57;1.90;;;23.40;99.90;;;;;;5052201;28;20564;-70
2023/03/10 09:27:21;;;;;;;10.40;2.40;;;23.40;99.90;;;;;;5052924;28;20199;-70
2023/03/10 09:29:48;;;;;;;11.80;2.37;;;23.40;99.90;;;;;;5040624;28;20267;-70
2023/03/10 09:32:16;;;;;;;9.20;1.80;;;23.30;99.90;;;;;;5042243;28;20185;-71
2023/03/10 09:34:44;;;;;;;9.77;1.83;;;23.20;99.90;;;;;;5036482;28;20568;-70
2023/03/10 09:37:11;;;;;;;4.60;2.13;;;23.20;99.90;;;;;;5051746;28;20646;-69
2023/03/10 09:39:39;;;;;;;12.23;2.13;;;23.10;99.90;;;;;;5052927;28;20630;-69
2023/03/10 09:42:28;;;;;;;8.07;1.70;;;23.00;99.90;;;;;;5051789;28;20226;-69
2023/03/10 09:45:35;;;;;;;16.00;2.70;;;22.90;99.90;;;;;;5050877;28;20192;-69
2023/03/10 09:48:20;;;;;;;7.00;1.70;;;23.00;99.90;;;;;;5051560;28;20184;-69
2023/03/10 09:50:51;;;;;;;9.37;1.80;;;23.10;99.90;;;;;;5051103;28;20561;-69
2023/03/10 09:53:42;;;;;;;8.83;1.67;;;23.10;99.90;;;;;;5052466;28;20663;-69
2023/03/10 09:56:22;;;;;;;5.87;2.00;;;23.10;99.90;;;;;;5052068;28;20199;-69
2023/03/10 09:59:06;;;;;;;6.10;1.40;;;23.10;99.90;;;;;;5050662;28;20660;-69
2023/03/10 10:01:34;;;;;;;13.20;2.20;;;23.20;99.90;;;;;;5043786;28;20221;-69
2023/03/10 10:04:21;;;;;;;6.00;2.30;;;23.20;99.90;;;;;;5032450;28;20665;-70
2023/03/10 10:06:50;;;;;;;8.97;2.10;;;23.00;99.90;;;;;;5032564;28;20260;-70
2023/03/10 10:09:41;;;;;;;12.67;2.37;;;22.90;99.90;;;;;;5032291;28;20223;-71
2023/03/10 10:12:22;;;;;;;10.67;2.50;;;22.70;99.90;;;;;;5047239;28;20192;-68
2023/03/10 10:15:00;;;;;;;11.07;2.17;;;22.80;99.90;;;;;;5051499;28;20192;-69
2023/03/10 10:17:37;;;;;;;11.13;2.20;;;22.70;99.90;;;;;;5051285;28;20196;-69
2023/03/10 10:20:22;;;;;;;9.10;1.90;;;22.60;99.90;;;;;;5051930;28;20255;-70
2023/03/10 10:22:49;;;;;;;9.03;1.80;;;22.70;99.90;;;;;;5050855;28;20668;-68
2023/03/10 10:25:21;;;;;;;15.00;2.50;;;22.60;99.90;;;;;;5051410;28;20587;-69
2023/03/10 10:27:54;;;;;;;6.60;2.13;;;22.50;99.90;;;;;;5044448;28;20647;-69
2023/03/10 10:30:32;;;;;;;8.50;2.23;;;22.40;99.90;;;;;;5037991;28;20200;-69
2023/03/10 10:33:05;;;;;;;9.33;1.93;;;22.40;99.90;;;;;;5048998;28;20230;-69
2023/03/10 10:36:09;;;;;;;8.80;2.50;;;22.30;99.90;;;;;;5051919;28;20181;-70
2023/03/10 10:38:36;;;;;;;4.27;1.60;;;22.20;99.90;;;;;;5031467;28;20196;-70
2023/03/10 10:41:06;;;;;;;6.17;2.20;;;22.10;99.90;;;;;;5033748;28;20193;-69
2023/03/10 10:43:44;;;;;;;7.47;1.73;;;22.10;99.90;;;;;;5044690;28;20248;-69
2023/03/10 10:46:14;;;;;;;5.97;1.73;;;22.00;99.90;;;;;;5050702;28;20193;-70
2023/03/10 10:48:50;;;;;;;7.20;1.60;;;22.00;99.90;;;;;;5053057;28;20645;-69
2023/03/10 10:51:27;;;;;;;5.70;1.83;;;22.00;99.90;;;;;;5053808;28;20251;-69
2023/03/10 10:54:00;;;;;;;7.70;1.97;;;21.90;99.90;;;;;;5052098;28;20313;-70
2023/03/10 10:56:29;;;;;;;8.47;1.43;;;21.90;99.90;;;;;;5070743;28;20597;-70
2023/03/10 10:59:32;;;;;;;5.40;1.83;;;21.80;99.90;;;;;;5053794;28;20195;-69
2023/03/10 11:02:03;;;;;;;8.10;2.17;;;21.80;99.90;;;;;;5033291;28;20558;-70
2023/03/10 11:04:44;;;;;;;10.07;2.00;;;21.70;99.90;;;;;;5055591;28;20263;-69
2023/03/10 11:07:26;;;;;;;6.33;1.77;;;21.60;99.90;;;;;;5055569;28;20638;-69
2023/03/10 11:09:56;;;;;;;7.97;2.10;;;21.60;99.90;;;;;;5054995;28;20716;-70
2023/03/10 11:12:41;;;;;;;9.43;2.13;;;21.60;99.90;;;;;;5041645;28;20189;-70
2023/03/10 11:15:40;;;;;;;8.83;1.87;;;21.60;99.90;;;;;;5034857;28;20188;-70
2023/03/10 11:18:19;;;;;;;7.40;2.27;;;21.50;99.90;;;;;;5034944;28;20182;-70
2023/03/10 11:21:02;;;;;;;6.20;2.20;;;21.40;99.90;;;;;;5035041;28;20278;-70
2023/03/10 11:23:58;;;;;;;5.77;1.87;;;21.40;99.90;;;;;;5034843;28;20180;-69
2023/03/10 11:26:43;;;;;;;6.37;1.70;;;21.40;99.90;;;;;;5027032;28;20270;-69
2023/03/10 11:29:10;;;;;;;12.23;2.27;;;21.30;99.90;;;;;;5034555;28;20225;-69
2023/03/10 11:31:38;;;;;;;7.13;1.90;;;21.30;99.90;;;;;;5040841;28;20199;-69
2023/03/10 11:34:18;;;;;;;4.93;1.80;;;21.20;99.90;;;;;;5054317;28;20184;-69
2023/03/10 11:37:03;;;;;;;5.03;1.93;;;21.20;99.90;;;;;;5052103;28;20191;-70
2023/03/10 11:39:54;;;;;;;7.63;1.70;;;21.20;99.90;;;;;;5051785;28;20196;-70
2023/03/10 11:42:39;;;;;;;9.37;2.20;;;21.10;99.90;;;;;;5041442;28;20191;-69
2023/03/10 11:45:26;;;;;;;5.30;2.13;;;21.10;99.90;;;;;;5052736;28;20642;-69
2023/03/10 11:48:33;;;;;;;11.37;2.67;;;21.10;99.90;;;;;;5052829;28;20271;-70
2023/03/10 11:51:03;;;;;;;12.27;2.20;;;21.10;99.90;;;;;;5054861;28;20184;-69
2023/03/10 11:53:43;;;;;;;11.33;2.33;;;21.10;99.90;;;;;;5054596;28;20252;-69
2023/03/10 11:56:13;;;;;;;8.20;2.27;;;21.00;99.90;;;;;;5052364;28;20218;-70
2023/03/10 11:59:02;;;;;;;10.17;2.07;;;21.00;99.90;;;;;;5052241;28;20191;-69
2023/03/10 12:01:48;;;;;;;7.10;2.30;;;20.90;99.90;;;;;;5052357;28;20665;-69
2023/03/10 12:04:30;;;;;;;8.47;2.20;;;20.80;99.90;;;;;;5053607;28;20684;-70
2023/03/10 12:07:10;;;;;;;6.67;2.33;;;20.80;99.90;;;;;;5053254;28;20185;-69
2023/03/10 12:10:03;;;;;;;11.03;2.03;;;20.80;99.90;;;;;;5053123;28;20216;-70
2023/03/10 12:12:36;;;;;;;14.53;2.47;;;20.70;99.90;;;;;;5038087;28;20200;-69
2023/03/10 12:15:18;;;;;;;5.90;2.20;;;20.70;99.90;;;;;;5036107;28;20618;-69
2023/03/10 12:17:48;;;;;;;8.83;2.30;;;20.70;99.90;;;;;;5054135;28;20279;-69
2023/03/10 12:20:18;;;;;;;8.10;1.73;;;20.60;99.90;;;;;;5054053;28;20695;-70
2023/03/10 12:22:55;;;;;;;9.30;2.10;;;20.70;99.90;;;;;;5053038;28;20203;-70
2023/03/10 12:25:29;;;;;;;6.20;2.20;;;20.60;99.90;;;;;;5053019;28;20187;-69
2023/03/10 12:28:21;;;;;;;6.63;1.80;;;20.60;99.90;;;;;;5051669;28;20184;-71
2023/03/10 12:31:02;;;;;;;8.47;2.00;;;20.60;99.90;;;;;;5052740;28;20288;-70
2023/03/10 12:33:41;;;;;;;6.57;2.30;;;20.50;99.90;;;;;;5053055;28;20216;-70
2023/03/10 12:36:23;;;;;;;4.67;1.50;;;20.50;99.90;;;;;;5052446;28;20748;-70
2023/03/10 12:38:58;;;;;;;7.43;1.93;;;20.50;99.90;;;;;;5050831;28;20196;-70
2023/03/10 12:41:29;;;;;;;7.10;2.07;;;20.40;99.90;;;;;;5046289;28;20207;-70
2023/03/10 12:44:24;;;;;;;9.57;1.93;;;20.40;99.90;;;;;;5052282;28;20192;-70
2023/03/10 12:47:00;;;;;;;5.87;2.17;;;20.30;99.90;;;;;;5051561;28;20191;-71
2023/03/10 12:49:50;;;;;;;9.83;2.20;;;20.30;99.90;;;;;;5045296;28;20223;-70
2023/03/10 12:52:47;;;;;;;8.10;2.30;;;20.30;99.90;;;;;;5046659;28;20191;-70
2023/03/10 12:55:20;;;;;;;5.30;1.83;;;20.30;99.90;;;;;;5052646;28;20189;-70
2023/03/10 12:58:09;;;;;;;9.67;2.20;;;20.20;99.90;;;;;;5052482;28;20191;-71
2023/03/10 13:01:00;;;;;;;8.13;2.33;;;20.20;99.90;;;;;;5040658;28;20646;-71
2023/03/10 13:03:51;;;;;;;9.33;2.40;;;20.20;99.90;;;;;;5053341;28;20174;-70
2023/03/10 13:06:34;;;;;;;7.00;2.13;;;20.10;99.90;;;;;;5050728;28;20604;-70
2023/03/10 13:09:37;;;;;;;6.27;1.77;;;20.10;99.90;;;;;;5049766;28;20212;-70
2023/03/10 13:12:30;;;;;;;10.33;2.60;;;20.10;99.90;;;;;;5051574;28;20203;-69
2023/03/10 13:15:00;;;;;;;9.50;2.50;;;20.00;99.90;;;;;;5052176;28;20184;-70